AirNav   Everest Fuels
 
 1569 users online  

CO15 Kelly Air Park
Elbert, Colorado, USA

GOING TO ELBERT?


FAA INFORMATION EFFECTIVE 15 JULY 2021

Location

FAA Identifier: CO15
Lat/Long: 39-13-28.8000N 104-38-23.6400W
39-13.480000N 104-38.394000W
39.2246667,-104.6399000
(estimated)
Elevation: 7040 ft. / 2146 m (estimated)
Variation: 11E (1985)
From city: 6 miles W of ELBERT, CO
Time zone: UTC -6 (UTC -7 during Standard Time)
Zip code: 80106

Airport Operations

Airport use: Private use. Permission required prior to landing
Activation date: 11/1988
Control tower: no
ARTCC: DENVER CENTER
FSS: DENVER FLIGHT SERVICE STATION
Attendance: UNATNDD
Wind indicator: yes
Segmented circle: yes

Airport Communications

UNICOM: 123.05
WX AWOS-3PT at FLY (17 nm S): 118.450 (719-683-5371)

Nearby radio navigation aids

VOR radial/distance  VOR name  Freq  Var
BRKr351/16.8BLACK FOREST VOR/DME112.5008E
FQFr171/27.9FALCON VORTAC116.3011E
FCSr357/33.1BUTTS VOR/DME108.8012E
DENr170/35.3DENVER VOR/DME117.9008E

 
NDB name  Hdg/Dist  Freq  Var  ID
IRONHORSE001/33.233508EIHS .. .... ...

Airport Services

Runway Information

Runway 17/35

Dimensions: 3800 x 36 ft. / 1158 x 11 m
Surface: asphalt
RUNWAY 17  RUNWAY 35
Traffic pattern: leftright

Runway 9/27

Dimensions: 1700 x 50 ft. / 518 x 15 m
Surface: turf
Operational restrictions: RY 09 NOT RECOMMENDED FOR TAKEOFF OR LANDING.
RUNWAY 9  RUNWAY 27
Traffic pattern: rightleft

Airport Ownership and Management from official FAA records

Ownership: Privately-owned
Owner: KELLY AIR PARK ASSN
24652 DAVID C JOHNSON LOOP
ELBERT, CO 80106-9512
Phone 303-648-3461
OR 303-648-0056.
Manager: FRANK NIEHUS
24652 DAVID C JOHNSON LOOP
ELBERT, CO 80106-9512
Phone (303) 648-3461

Airport Operational Statistics

Aircraft based on the field: 54
Single engine airplanes: 30
Gliders airplanes: 24
    

Additional Remarks

GLIDER ACTIVITY ON & INVOF ARPT.
WX AWOS AT MONUMENT HILL ON SITE: 134.375 (303-648-3479).
ULTRALIGHT ACTIVITY PROHIBITED
FOR CD CTC DENVER APCH AT 303-342-1916.

Instrument Procedures

There are no published instrument procedures at CO15.

Some nearby airports with instrument procedures:

KAPA - Centennial Airport (23 nm NW)
KCOS - City of Colorado Springs Municipal Airport (25 nm S)
KBKF - Buckley Air Force Base (29 nm N)
KCFO - Colorado Air and Space Port Airport (34 nm N)
KDEN - Denver International Airport (38 nm N)
 
Loc | Ops | Rwys | IFR | FBO | Links
Com | Nav | Svcs | Stats | Notes

AirBoss

 
Area around CO15 (Kelly Air Park)
 
Road maps at: MapQuest Bing Google
 
Aerial photo
WARNING: Photo may not be current or correct
Aerial photo of CO15 (Kelly Air Park)
Taken early June 2010

Do you have a better or more recent aerial photo of Kelly Air Park that you would like to share? If so, please send us your photo.

 
Sectional chart

 
Airport distance calculator
Flying to Kelly Air Park? Find the distance to fly.

From to CO15

Sunrise and sunset
Times for 30-Jul-2021
 Local
(UTC-6)
 Zulu
(UTC)
Morning civil twilight05:2811:28
Sunrise05:5811:58
Sunset20:1202:12
Evening civil twilight20:4202:42

Current date and time
Zulu (UTC)  30-Jul-2021 16:19:00
Local (UTC-6)  30-Jul-2021 10:19:00
 
METAR
KMNH 301555Z AUTO 32010KT 10SM CLR 23/10 A3040 RMK AO2
KFLY 
17nm S 
301555Z AUTO 14005G14KT 10SM CLR 28/05 A3037 RMK AO2 T02750054
KAFF 
18nm SW 
301558Z AUTO 35015KT 10SM CLR 26/09 A3032 RMK AO2 SLP162 T02630092
TAF
KAFF 
18nm SW 
301105Z 3011/3117 35012KT 9999 FEW200 QNH3025INS BECMG 3017/3018 16009KT 9999 BKN080 QNH3019INS BECMG 3019/3020 16012G18KT 9999 VCTS BKN080CB QNH3019INS TEMPO 3022/3024 VRB20G45KT BECMG 3100/3101 VRB06KT 9999 VCTS BKN080CB QNH3019INS BECMG 3101/3102 35025G35KT 9999 VCTS BKN060CB QNH3021INS BECMG 3104/3105 35020G30KT 9999 NSW SCT020 BKN060 520009 QNH3024INS BECMG 3110/3111 35015G25KT 9999 BKN020 510009 QNH3028INS TX31/3021Z TN13/3012Z
NOTAMs
Click for the latest NOTAMs
NOTAMs are issued by the DoD/FAA and will open in a separate window not controlled by AirNav.

 

 
 

Would you like to see your business listed on this page?

 If your business provides an interesting product or service to pilots, flight crews, aircraft, or users of the Kelly Air Park, you should consider listing it here.  To start the listing process, click on the button below
 
Add a business
 

Other Pages about Kelly Air Park

www.kellyairpark.com
 
Update a link
 
Copyright © AirNav, LLC. All rights reserved. Privacy Policy  Contact